sensor_id;sensor_type;location;lat;lon;timestamp;temperature;humidity
2030;DHT22;1020;48.854;8.830;2023-04-30T00:02:00;9.50;1.00
2030;DHT22;1020;48.854;8.830;2023-04-30T00:04:27;11.10;1.00
2030;DHT22;1020;48.854;8.830;2023-04-30T00:06:53;11.10;1.00
2030;DHT22;1020;48.854;8.830;2023-04-30T00:09:23;11.10;1.00
2030;DHT22;1020;48.854;8.830;2023-04-30T00:11:50;11.00;1.00
2030;DHT22;1020;48.854;8.830;2023-04-30T00:14:16;11.00;1.00
2030;DHT22;1020;48.854;8.830;2023-04-30T00:16:43;11.10;2.80
2030;DHT22;1020;48.854;8.830;2023-04-30T00:19:10;11.10;1.00
2030;DHT22;1020;48.854;8.830;2023-04-30T00:21:36;11.10;1.00
2030;DHT22;1020;48.854;8.830;2023-04-30T00:24:04;11.10;1.00
2030;DHT22;1020;48.854;8.830;2023-04-30T00:26:32;11.10;1.00
2030;DHT22;1020;48.854;8.830;2023-04-30T00:28:58;11.10;1.00
2030;DHT22;1020;48.854;8.830;2023-04-30T00:31:25;11.10;1.00
2030;DHT22;1020;48.854;8.830;2023-04-30T00:33:52;11.10;1.00
2030;DHT22;1020;48.854;8.830;2023-04-30T00:36:19;11.10;1.00
2030;DHT22;1020;48.854;8.830;2023-04-30T00:38:46;11.00;1.00
2030;DHT22;1020;48.854;8.830;2023-04-30T00:41:12;11.00;1.00
2030;DHT22;1020;48.854;8.830;2023-04-30T00:43:41;11.00;1.00
2030;DHT22;1020;48.854;8.830;2023-04-30T00:46:07;11.00;1.00
2030;DHT22;1020;48.854;8.830;2023-04-30T00:48:34;11.00;1.00
2030;DHT22;1020;48.854;8.830;2023-04-30T00:51:01;11.00;1.00
2030;DHT22;1020;48.854;8.830;2023-04-30T00:53:29;10.90;1.00
2030;DHT22;1020;48.854;8.830;2023-04-30T00:55:56;10.90;1.00
2030;DHT22;1020;48.854;8.830;2023-04-30T00:58:23;10.90;1.00
2030;DHT22;1020;48.854;8.830;2023-04-30T01:00:51;11.00;1.00
2030;DHT22;1020;48.854;8.830;2023-04-30T01:03:19;11.00;1.00
2030;DHT22;1020;48.854;8.830;2023-04-30T01:05:47;11.00;1.00
2030;DHT22;1020;48.854;8.830;2023-04-30T01:08:14;11.00;1.00
2030;DHT22;1020;48.854;8.830;2023-04-30T01:10:47;11.00;1.00
2030;DHT22;1020;48.854;8.830;2023-04-30T01:13:25;10.90;1.00
2030;DHT22;1020;48.854;8.830;2023-04-30T01:15:59;10.90;1.00
2030;DHT22;1020;48.854;8.830;2023-04-30T01:18:32;11.00;1.00
2030;DHT22;1020;48.854;8.830;2023-04-30T01:21:03;10.90;1.00
2030;DHT22;1020;48.854;8.830;2023-04-30T01:23:41;10.90;1.00
2030;DHT22;1020;48.854;8.830;2023-04-30T01:26:14;10.90;1.00
2030;DHT22;1020;48.854;8.830;2023-04-30T01:28:45;10.80;28.10
2030;DHT22;1020;48.854;8.830;2023-04-30T01:31:13;10.80;1.00
2030;DHT22;1020;48.854;8.830;2023-04-30T01:33:40;10.90;1.00
2030;DHT22;1020;48.854;8.830;2023-04-30T01:39:23;10.90;1.00
2030;DHT22;1020;48.854;8.830;2023-04-30T01:41:59;10.80;1.00
2030;DHT22;1020;48.854;8.830;2023-04-30T01:44:48;10.80;1.00
2030;DHT22;1020;48.854;8.830;2023-04-30T01:47:25;10.70;1.00
2030;DHT22;1020;48.854;8.830;2023-04-30T01:50:00;10.70;13.10
2030;DHT22;1020;48.854;8.830;2023-04-30T01:52:31;10.70;35.70
2030;DHT22;1020;48.854;8.830;2023-04-30T01:55:06;10.60;95.70
2030;DHT22;1020;48.854;8.830;2023-04-30T01:57:38;10.60;99.90
2030;DHT22;1020;48.854;8.830;2023-04-30T02:00:09;10.60;99.90
2030;DHT22;1020;48.854;8.830;2023-04-30T02:02:36;10.40;99.90
2030;DHT22;1020;48.854;8.830;2023-04-30T02:05:03;10.50;99.90
2030;DHT22;1020;48.854;8.830;2023-04-30T02:07:36;10.50;99.90
2030;DHT22;1020;48.854;8.830;2023-04-30T02:10:05;10.40;99.90
2030;DHT22;1020;48.854;8.830;2023-04-30T02:12:32;10.50;99.90
2030;DHT22;1020;48.854;8.830;2023-04-30T02:15:00;10.40;99.90
2030;DHT22;1020;48.854;8.830;2023-04-30T02:17:28;10.40;99.90
2030;DHT22;1020;48.854;8.830;2023-04-30T02:19:55;10.30;99.90
2030;DHT22;1020;48.854;8.830;2023-04-30T02:22:22;10.30;99.90
2030;DHT22;1020;48.854;8.830;2023-04-30T02:24:49;10.20;99.90
2030;DHT22;1020;48.854;8.830;2023-04-30T02:27:16;10.20;1.00
2030;DHT22;1020;48.854;8.830;2023-04-30T02:29:43;10.10;1.00
2030;DHT22;1020;48.854;8.830;2023-04-30T02:32:11;10.10;1.00
2030;DHT22;1020;48.854;8.830;2023-04-30T02:34:39;10.00;1.00
2030;DHT22;1020;48.854;8.830;2023-04-30T02:37:06;10.00;1.00
2030;DHT22;1020;48.854;8.830;2023-04-30T02:39:33;9.90;1.00
2030;DHT22;1020;48.854;8.830;2023-04-30T02:42:03;9.90;1.00
2030;DHT22;1020;48.854;8.830;2023-04-30T02:44:31;9.90;1.00
2030;DHT22;1020;48.854;8.830;2023-04-30T02:46:58;10.00;1.00
2030;DHT22;1020;48.854;8.830;2023-04-30T02:49:25;10.00;1.00
2030;DHT22;1020;48.854;8.830;2023-04-30T02:51:53;10.00;1.00
2030;DHT22;1020;48.854;8.830;2023-04-30T02:54:20;10.00;1.00
2030;DHT22;1020;48.854;8.830;2023-04-30T02:56:50;10.00;1.00
2030;DHT22;1020;48.854;8.830;2023-04-30T02:59:16;9.30;1.00
2030;DHT22;1020;48.854;8.830;2023-04-30T03:01:43;9.90;1.00
2030;DHT22;1020;48.854;8.830;2023-04-30T03:04:10;9.90;1.00
2030;DHT22;1020;48.854;8.830;2023-04-30T03:06:37;9.70;1.00
2030;DHT22;1020;48.854;8.830;2023-04-30T03:09:05;9.70;1.00
2030;DHT22;1020;48.854;8.830;2023-04-30T03:11:32;9.70;1.00
2030;DHT22;1020;48.854;8.830;2023-04-30T03:14:02;9.70;1.00
2030;DHT22;1020;48.854;8.830;2023-04-30T03:16:28;9.80;1.00
2030;DHT22;1020;48.854;8.830;2023-04-30T03:18:56;9.90;1.00
2030;DHT22;1020;48.854;8.830;2023-04-30T03:21:23;10.00;1.00
2030;DHT22;1020;48.854;8.830;2023-04-30T03:23:49;10.00;1.00
2030;DHT22;1020;48.854;8.830;2023-04-30T03:26:18;9.90;1.00
2030;DHT22;1020;48.854;8.830;2023-04-30T03:28:46;10.00;1.00
2030;DHT22;1020;48.854;8.830;2023-04-30T03:31:13;9.80;1.00
2030;DHT22;1020;48.854;8.830;2023-04-30T03:33:40;9.80;1.00
2030;DHT22;1020;48.854;8.830;2023-04-30T03:36:07;9.80;1.00
2030;DHT22;1020;48.854;8.830;2023-04-30T03:38:34;9.80;1.00
2030;DHT22;1020;48.854;8.830;2023-04-30T03:41:01;9.80;1.00
2030;DHT22;1020;48.854;8.830;2023-04-30T03:43:29;9.80;1.00
2030;DHT22;1020;48.854;8.830;2023-04-30T03:45:56;9.80;1.00
2030;DHT22;1020;48.854;8.830;2023-04-30T03:48:23;9.90;1.00
2030;DHT22;1020;48.854;8.830;2023-04-30T03:50:49;9.90;1.00
2030;DHT22;1020;48.854;8.830;2023-04-30T03:53:16;10.00;1.00
2030;DHT22;1020;48.854;8.830;2023-04-30T03:55:43;10.00;1.00
2030;DHT22;1020;48.854;8.830;2023-04-30T03:58:10;10.10;1.00
2030;DHT22;1020;48.854;8.830;2023-04-30T04:00:39;10.10;1.00
2030;DHT22;1020;48.854;8.830;2023-04-30T04:03:06;10.00;1.00
2030;DHT22;1020;48.854;8.830;2023-04-30T04:05:33;10.00;1.00
2030;DHT22;1020;48.854;8.830;2023-04-30T04:08:00;10.00;1.00
2030;DHT22;1020;48.854;8.830;2023-04-30T04:10:27;10.00;1.00
2030;DHT22;1020;48.854;8.830;2023-04-30T04:12:54;10.00;1.00
2030;DHT22;1020;48.854;8.830;2023-04-30T04:15:21;9.90;1.00
2030;DHT22;1020;48.854;8.830;2023-04-30T04:17:49;9.80;1.00
2030;DHT22;1020;48.854;8.830;2023-04-30T04:20:15;9.80;1.00
2030;DHT22;1020;48.854;8.830;2023-04-30T04:22:43;9.80;1.00
2030;DHT22;1020;48.854;8.830;2023-04-30T04:25:10;9.80;1.00
2030;DHT22;1020;48.854;8.830;2023-04-30T04:27:38;9.80;1.00
2030;DHT22;1020;48.854;8.830;2023-04-30T04:30:06;9.70;1.00
2030;DHT22;1020;48.854;8.830;2023-04-30T04:32:33;9.50;1.00
2030;DHT22;1020;48.854;8.830;2023-04-30T04:35:08;9.60;1.00
2030;DHT22;1020;48.854;8.830;2023-04-30T04:37:34;9.70;1.00
2030;DHT22;1020;48.854;8.830;2023-04-30T04:40:01;9.60;1.00
2030;DHT22;1020;48.854;8.830;2023-04-30T04:42:29;9.60;1.00
2030;DHT22;1020;48.854;8.830;2023-04-30T04:44:56;9.60;1.00
2030;DHT22;1020;48.854;8.830;2023-04-30T04:47:23;9.60;1.00
2030;DHT22;1020;48.854;8.830;2023-04-30T04:49:50;9.60;1.00
2030;DHT22;1020;48.854;8.830;2023-04-30T04:52:18;9.60;1.00
2030;DHT22;1020;48.854;8.830;2023-04-30T04:54:45;9.60;1.00
2030;DHT22;1020;48.854;8.830;2023-04-30T04:57:12;9.70;1.00
2030;DHT22;1020;48.854;8.830;2023-04-30T04:59:39;9.70;1.00
2030;DHT22;1020;48.854;8.830;2023-04-30T05:02:05;9.70;1.00
2030;DHT22;1020;48.854;8.830;2023-04-30T05:04:32;9.80;1.00
2030;DHT22;1020;48.854;8.830;2023-04-30T05:06:59;9.80;1.00
2030;DHT22;1020;48.854;8.830;2023-04-30T05:09:27;9.80;1.00
2030;DHT22;1020;48.854;8.830;2023-04-30T05:11:53;9.80;1.00
2030;DHT22;1020;48.854;8.830;2023-04-30T05:14:20;9.90;1.00
2030;DHT22;1020;48.854;8.830;2023-04-30T05:16:47;10.00;1.00
2030;DHT22;1020;48.854;8.830;2023-04-30T05:19:14;10.00;1.00
2030;DHT22;1020;48.854;8.830;2023-04-30T05:21:40;10.00;1.00
2030;DHT22;1020;48.854;8.830;2023-04-30T05:24:07;10.10;1.00
2030;DHT22;1020;48.854;8.830;2023-04-30T05:26:35;10.20;1.00
2030;DHT22;1020;48.854;8.830;2023-04-30T05:29:02;10.20;1.00
2030;DHT22;1020;48.854;8.830;2023-04-30T05:31:29;10.20;1.00
2030;DHT22;1020;48.854;8.830;2023-04-30T05:33:56;10.30;1.00
2030;DHT22;1020;48.854;8.830;2023-04-30T05:36:24;10.30;1.00
2030;DHT22;1020;48.854;8.830;2023-04-30T05:38:51;10.40;1.00
2030;DHT22;1020;48.854;8.830;2023-04-30T05:41:18;10.40;99.90
2030;DHT22;1020;48.854;8.830;2023-04-30T05:43:46;10.40;99.90
2030;DHT22;1020;48.854;8.830;2023-04-30T05:46:12;10.60;99.90
2030;DHT22;1020;48.854;8.830;2023-04-30T05:48:39;10.60;99.90
2030;DHT22;1020;48.854;8.830;2023-04-30T05:51:06;10.70;99.90
2030;DHT22;1020;48.854;8.830;2023-04-30T05:53:35;10.90;99.90
2030;DHT22;1020;48.854;8.830;2023-04-30T05:56:02;11.20;99.90
2030;DHT22;1020;48.854;8.830;2023-04-30T05:58:28;11.40;1.00
2030;DHT22;1020;48.854;8.830;2023-04-30T06:00:57;11.60;99.90
2030;DHT22;1020;48.854;8.830;2023-04-30T06:03:24;11.70;1.00
2030;DHT22;1020;48.854;8.830;2023-04-30T06:05:51;11.80;1.00
2030;DHT22;1020;48.854;8.830;2023-04-30T06:08:18;11.80;99.90
2030;DHT22;1020;48.854;8.830;2023-04-30T06:10:44;11.90;99.90
2030;DHT22;1020;48.854;8.830;2023-04-30T06:13:11;12.00;1.00
2030;DHT22;1020;48.854;8.830;2023-04-30T06:15:39;12.00;99.90
2030;DHT22;1020;48.854;8.830;2023-04-30T06:18:07;12.20;99.90
2030;DHT22;1020;48.854;8.830;2023-04-30T06:20:34;12.10;99.90
2030;DHT22;1020;48.854;8.830;2023-04-30T06:23:01;12.30;99.90
2030;DHT22;1020;48.854;8.830;2023-04-30T06:25:28;12.50;30.00
2030;DHT22;1020;48.854;8.830;2023-04-30T06:27:55;12.50;1.00
2030;DHT22;1020;48.854;8.830;2023-04-30T06:30:21;12.50;1.00
2030;DHT22;1020;48.854;8.830;2023-04-30T06:32:48;12.60;1.00
2030;DHT22;1020;48.854;8.830;2023-04-30T06:35:16;12.80;1.00
2030;DHT22;1020;48.854;8.830;2023-04-30T06:37:43;13.00;1.00
2030;DHT22;1020;48.854;8.830;2023-04-30T06:40:10;12.70;99.90
2030;DHT22;1020;48.854;8.830;2023-04-30T06:42:37;12.90;99.90
2030;DHT22;1020;48.854;8.830;2023-04-30T06:45:04;12.90;99.90
2030;DHT22;1020;48.854;8.830;2023-04-30T06:47:32;13.10;99.90
2030;DHT22;1020;48.854;8.830;2023-04-30T06:50:00;13.20;99.90
2030;DHT22;1020;48.854;8.830;2023-04-30T06:52:29;13.40;99.90
2030;DHT22;1020;48.854;8.830;2023-04-30T06:54:56;13.90;99.90
2030;DHT22;1020;48.854;8.830;2023-04-30T06:57:23;14.00;99.90
2030;DHT22;1020;48.854;8.830;2023-04-30T06:59:50;14.00;83.00
2030;DHT22;1020;48.854;8.830;2023-04-30T07:02:16;14.00;75.30
2030;DHT22;1020;48.854;8.830;2023-04-30T07:04:43;14.00;40.20
2030;DHT22;1020;48.854;8.830;2023-04-30T07:07:10;14.10;18.20
2030;DHT22;1020;48.854;8.830;2023-04-30T07:09:38;14.00;1.00
2030;DHT22;1020;48.854;8.830;2023-04-30T07:12:05;14.30;1.00
2030;DHT22;1020;48.854;8.830;2023-04-30T07:14:33;14.20;1.00
2030;DHT22;1020;48.854;8.830;2023-04-30T07:17:00;14.20;1.00
2030;DHT22;1020;48.854;8.830;2023-04-30T07:19:26;14.30;1.00
2030;DHT22;1020;48.854;8.830;2023-04-30T07:21:53;14.70;1.00
2030;DHT22;1020;48.854;8.830;2023-04-30T07:24:20;15.00;1.00
2030;DHT22;1020;48.854;8.830;2023-04-30T07:26:48;14.40;1.00
2030;DHT22;1020;48.854;8.830;2023-04-30T07:29:15;13.90;1.00
2030;DHT22;1020;48.854;8.830;2023-04-30T07:31:42;14.20;1.00
2030;DHT22;1020;48.854;8.830;2023-04-30T07:34:09;14.70;1.00
2030;DHT22;1020;48.854;8.830;2023-04-30T07:36:36;15.50;1.00
2030;DHT22;1020;48.854;8.830;2023-04-30T07:39:03;16.60;1.00
2030;DHT22;1020;48.854;8.830;2023-04-30T07:41:31;18.00;1.00
2030;DHT22;1020;48.854;8.830;2023-04-30T07:43:59;19.20;1.00
2030;DHT22;1020;48.854;8.830;2023-04-30T07:46:25;20.10;99.90
2030;DHT22;1020;48.854;8.830;2023-04-30T07:48:52;20.10;99.90
2030;DHT22;1020;48.854;8.830;2023-04-30T07:51:19;20.70;99.90
2030;DHT22;1020;48.854;8.830;2023-04-30T07:53:46;21.00;99.90
2030;DHT22;1020;48.854;8.830;2023-04-30T07:56:12;20.60;99.90
2030;DHT22;1020;48.854;8.830;2023-04-30T07:58:39;20.50;99.90
2030;DHT22;1020;48.854;8.830;2023-04-30T08:01:07;20.20;99.90
2030;DHT22;1020;48.854;8.830;2023-04-30T08:03:34;20.30;99.90
2030;DHT22;1020;48.854;8.830;2023-04-30T08:06:01;19.80;99.90
2030;DHT22;1020;48.854;8.830;2023-04-30T08:08:28;20.50;99.90
2030;DHT22;1020;48.854;8.830;2023-04-30T08:10:54;19.80;99.90
2030;DHT22;1020;48.854;8.830;2023-04-30T08:13:21;18.00;99.90
2030;DHT22;1020;48.854;8.830;2023-04-30T08:15:48;18.70;99.90
2030;DHT22;1020;48.854;8.830;2023-04-30T08:18:16;19.50;99.90
2030;DHT22;1020;48.854;8.830;2023-04-30T08:20:42;20.20;99.90
2030;DHT22;1020;48.854;8.830;2023-04-30T08:23:09;20.70;99.90
2030;DHT22;1020;48.854;8.830;2023-04-30T08:25:36;21.20;99.90
2030;DHT22;1020;48.854;8.830;2023-04-30T08:28:03;21.50;99.90
2030;DHT22;1020;48.854;8.830;2023-04-30T08:30:30;22.10;99.90
2030;DHT22;1020;48.854;8.830;2023-04-30T08:32:56;21.50;99.90
2030;DHT22;1020;48.854;8.830;2023-04-30T08:35:25;21.00;99.90
2030;DHT22;1020;48.854;8.830;2023-04-30T08:37:54;20.50;99.90
2030;DHT22;1020;48.854;8.830;2023-04-30T08:40:20;19.80;99.90
2030;DHT22;1020;48.854;8.830;2023-04-30T08:42:56;20.50;99.90
2030;DHT22;1020;48.854;8.830;2023-04-30T08:45:25;21.00;99.90
2030;DHT22;1020;48.854;8.830;2023-04-30T08:47:53;21.10;99.90
2030;DHT22;1020;48.854;8.830;2023-04-30T08:50:22;20.80;99.90
2030;DHT22;1020;48.854;8.830;2023-04-30T08:52:50;20.10;99.90
2030;DHT22;1020;48.854;8.830;2023-04-30T08:55:17;18.90;99.90
2030;DHT22;1020;48.854;8.830;2023-04-30T08:57:44;17.70;99.90
2030;DHT22;1020;48.854;8.830;2023-04-30T09:00:12;18.20;99.90
2030;DHT22;1020;48.854;8.830;2023-04-30T09:02:39;18.00;99.90
2030;DHT22;1020;48.854;8.830;2023-04-30T09:05:09;18.70;99.90
2030;DHT22;1020;48.854;8.830;2023-04-30T09:07:38;19.50;99.90
2030;DHT22;1020;48.854;8.830;2023-04-30T09:10:14;19.50;99.90
2030;DHT22;1020;48.854;8.830;2023-04-30T09:12:42;19.10;99.90
2030;DHT22;1020;48.854;8.830;2023-04-30T09:15:10;18.40;99.90
2030;DHT22;1020;48.854;8.830;2023-04-30T09:17:38;17.90;99.90
2030;DHT22;1020;48.854;8.830;2023-04-30T09:20:09;18.10;99.90
2030;DHT22;1020;48.854;8.830;2023-04-30T09:22:37;18.10;99.90
2030;DHT22;1020;48.854;8.830;2023-04-30T09:25:06;15.70;99.90
2030;DHT22;1020;48.854;8.830;2023-04-30T09:27:34;17.50;99.90
2030;DHT22;1020;48.854;8.830;2023-04-30T09:30:01;17.50;99.90
2030;DHT22;1020;48.854;8.830;2023-04-30T09:32:29;17.60;99.90
2030;DHT22;1020;48.854;8.830;2023-04-30T09:34:55;17.60;99.90
2030;DHT22;1020;48.854;8.830;2023-04-30T09:37:34;17.30;99.90
2030;DHT22;1020;48.854;8.830;2023-04-30T09:40:01;17.40;99.90
2030;DHT22;1020;48.854;8.830;2023-04-30T09:42:29;17.40;99.90
2030;DHT22;1020;48.854;8.830;2023-04-30T09:44:57;17.30;99.90
2030;DHT22;1020;48.854;8.830;2023-04-30T09:47:28;17.10;99.90
2030;DHT22;1020;48.854;8.830;2023-04-30T09:49:58;16.80;99.90
2030;DHT22;1020;48.854;8.830;2023-04-30T09:52:25;17.50;99.90
2030;DHT22;1020;48.854;8.830;2023-04-30T09:54:52;17.70;99.90
2030;DHT22;1020;48.854;8.830;2023-04-30T09:57:22;17.30;99.90
2030;DHT22;1020;48.854;8.830;2023-04-30T09:59:51;17.10;99.90
2030;DHT22;1020;48.854;8.830;2023-04-30T10:02:20;17.10;99.90
2030;DHT22;1020;48.854;8.830;2023-04-30T10:04:53;17.10;99.90
2030;DHT22;1020;48.854;8.830;2023-04-30T10:07:21;17.30;99.90
2030;DHT22;1020;48.854;8.830;2023-04-30T10:09:54;17.20;99.90
2030;DHT22;1020;48.854;8.830;2023-04-30T10:12:31;17.30;99.90
2030;DHT22;1020;48.854;8.830;2023-04-30T10:15:05;17.10;99.90
2030;DHT22;1020;48.854;8.830;2023-04-30T10:17:34;17.30;99.90
2030;DHT22;1020;48.854;8.830;2023-04-30T10:20:06;17.60;99.90
2030;DHT22;1020;48.854;8.830;2023-04-30T10:22:34;17.80;99.90
2030;DHT22;1020;48.854;8.830;2023-04-30T10:25:02;18.00;99.90
2030;DHT22;1020;48.854;8.830;2023-04-30T10:27:29;17.70;99.90
2030;DHT22;1020;48.854;8.830;2023-04-30T10:29:58;17.70;99.90
2030;DHT22;1020;48.854;8.830;2023-04-30T10:32:31;17.80;99.90
2030;DHT22;1020;48.854;8.830;2023-04-30T10:35:07;17.70;99.90
2030;DHT22;1020;48.854;8.830;2023-04-30T10:37:45;17.70;99.90
2030;DHT22;1020;48.854;8.830;2023-04-30T10:40:14;17.50;99.90
2030;DHT22;1020;48.854;8.830;2023-04-30T10:42:44;19.60;99.90
2030;DHT22;1020;48.854;8.830;2023-04-30T10:45:11;17.30;99.90
2030;DHT22;1020;48.854;8.830;2023-04-30T10:47:41;17.30;99.90
2030;DHT22;1020;48.854;8.830;2023-04-30T10:50:11;17.50;99.90
2030;DHT22;1020;48.854;8.830;2023-04-30T10:52:38;17.60;99.90
2030;DHT22;1020;48.854;8.830;2023-04-30T10:55:07;17.90;99.90
2030;DHT22;1020;48.854;8.830;2023-04-30T10:57:40;18.10;99.90
2030;DHT22;1020;48.854;8.830;2023-04-30T11:00:23;17.00;99.90
2030;DHT22;1020;48.854;8.830;2023-04-30T11:02:56;18.60;99.90
2030;DHT22;1020;48.854;8.830;2023-04-30T11:05:34;18.80;99.90
2030;DHT22;1020;48.854;8.830;2023-04-30T11:08:02;19.50;99.90
2030;DHT22;1020;48.854;8.830;2023-04-30T11:10:32;19.50;99.90
2030;DHT22;1020;48.854;8.830;2023-04-30T11:13:02;18.80;99.90
2030;DHT22;1020;48.854;8.830;2023-04-30T11:15:33;19.30;99.90
2030;DHT22;1020;48.854;8.830;2023-04-30T11:18:01;19.20;99.90
2030;DHT22;1020;48.854;8.830;2023-04-30T11:20:28;19.60;99.90
2030;DHT22;1020;48.854;8.830;2023-04-30T11:23:10;19.60;99.90
2030;DHT22;1020;48.854;8.830;2023-04-30T11:25:42;18.60;99.90
2030;DHT22;1020;48.854;8.830;2023-04-30T11:28:14;18.90;99.90
2030;DHT22;1020;48.854;8.830;2023-04-30T11:30:50;19.00;99.90
2030;DHT22;1020;48.854;8.830;2023-04-30T11:33:17;19.10;99.90
2030;DHT22;1020;48.854;8.830;2023-04-30T11:35:44;19.30;99.90
2030;DHT22;1020;48.854;8.830;2023-04-30T11:38:13;19.30;99.90
2030;DHT22;1020;48.854;8.830;2023-04-30T11:40:41;18.80;99.90
2030;DHT22;1020;48.854;8.830;2023-04-30T11:43:20;18.50;99.90
2030;DHT22;1020;48.854;8.830;2023-04-30T11:46:01;18.50;99.90
2030;DHT22;1020;48.854;8.830;2023-04-30T11:48:33;18.20;99.90
2030;DHT22;1020;48.854;8.830;2023-04-30T11:51:02;18.40;99.90
2030;DHT22;1020;48.854;8.830;2023-04-30T11:53:31;18.00;99.90
2030;DHT22;1020;48.854;8.830;2023-04-30T11:56:02;18.30;99.90
2030;DHT22;1020;48.854;8.830;2023-04-30T11:58:33;18.40;99.90
2030;DHT22;1020;48.854;8.830;2023-04-30T12:01:00;20.40;99.90
2030;DHT22;1020;48.854;8.830;2023-04-30T12:03:27;18.90;99.90
2030;DHT22;1020;48.854;8.830;2023-04-30T12:05:54;18.30;99.90
2030;DHT22;1020;48.854;8.830;2023-04-30T12:08:20;18.40;99.90
2030;DHT22;1020;48.854;8.830;2023-04-30T12:10:49;20.00;99.90
2030;DHT22;1020;48.854;8.830;2023-04-30T12:13:16;18.50;99.90
2030;DHT22;1020;48.854;8.830;2023-04-30T12:15:56;16.80;99.90
2030;DHT22;1020;48.854;8.830;2023-04-30T12:18:23;18.40;99.90
2030;DHT22;1020;48.854;8.830;2023-04-30T12:20:50;18.20;99.90
2030;DHT22;1020;48.854;8.830;2023-04-30T12:23:18;19.80;99.90
2030;DHT22;1020;48.854;8.830;2023-04-30T12:25:45;18.50;99.90
2030;DHT22;1020;48.854;8.830;2023-04-30T12:28:13;18.70;99.90
2030;DHT22;1020;48.854;8.830;2023-04-30T12:30:41;19.00;99.90
2030;DHT22;1020;48.854;8.830;2023-04-30T12:33:09;18.90;99.90
2030;DHT22;1020;48.854;8.830;2023-04-30T12:35:40;18.90;99.90
2030;DHT22;1020;48.854;8.830;2023-04-30T12:38:07;19.00;99.90
2030;DHT22;1020;48.854;8.830;2023-04-30T12:40:35;16.50;99.90
2030;DHT22;1020;48.854;8.830;2023-04-30T12:43:03;18.50;99.90
2030;DHT22;1020;48.854;8.830;2023-04-30T12:45:45;18.60;99.90
2030;DHT22;1020;48.854;8.830;2023-04-30T12:48:14;18.60;99.90
2030;DHT22;1020;48.854;8.830;2023-04-30T12:50:41;18.80;99.90
2030;DHT22;1020;48.854;8.830;2023-04-30T12:53:08;18.60;99.90
2030;DHT22;1020;48.854;8.830;2023-04-30T12:55:34;18.50;99.90
2030;DHT22;1020;48.854;8.830;2023-04-30T12:58:08;18.50;99.90
2030;DHT22;1020;48.854;8.830;2023-04-30T13:00:44;18.30;99.90
2030;DHT22;1020;48.854;8.830;2023-04-30T13:03:11;18.10;99.90
2030;DHT22;1020;48.854;8.830;2023-04-30T13:05:38;18.00;99.90
2030;DHT22;1020;48.854;8.830;2023-04-30T13:08:05;18.10;99.90
2030;DHT22;1020;48.854;8.830;2023-04-30T13:10:33;18.30;99.90
2030;DHT22;1020;48.854;8.830;2023-04-30T13:13:00;18.30;99.90
2030;DHT22;1020;48.854;8.830;2023-04-30T13:15:27;18.50;99.90
2030;DHT22;1020;48.854;8.830;2023-04-30T13:17:55;18.70;99.90
2030;DHT22;1020;48.854;8.830;2023-04-30T13:20:22;18.80;99.90
2030;DHT22;1020;48.854;8.830;2023-04-30T13:22:49;19.00;99.90
2030;DHT22;1020;48.854;8.830;2023-04-30T13:25:16;19.40;99.90
2030;DHT22;1020;48.854;8.830;2023-04-30T13:27:43;19.10;99.90
2030;DHT22;1020;48.854;8.830;2023-04-30T13:30:10;19.30;99.90
2030;DHT22;1020;48.854;8.830;2023-04-30T13:32:38;19.20;99.90
2030;DHT22;1020;48.854;8.830;2023-04-30T13:35:08;18.50;99.90
2030;DHT22;1020;48.854;8.830;2023-04-30T13:37:35;18.80;99.90
2030;DHT22;1020;48.854;8.830;2023-04-30T13:40:03;19.60;99.90
2030;DHT22;1020;48.854;8.830;2023-04-30T13:42:31;19.50;99.90
2030;DHT22;1020;48.854;8.830;2023-04-30T13:44:57;19.40;99.90
2030;DHT22;1020;48.854;8.830;2023-04-30T13:47:24;19.20;99.90
2030;DHT22;1020;48.854;8.830;2023-04-30T13:49:53;19.10;99.90
2030;DHT22;1020;48.854;8.830;2023-04-30T13:52:21;19.10;99.90
2030;DHT22;1020;48.854;8.830;2023-04-30T13:54:48;19.30;99.90
2030;DHT22;1020;48.854;8.830;2023-04-30T13:57:15;19.10;99.90
2030;DHT22;1020;48.854;8.830;2023-04-30T13:59:41;18.90;99.90
2030;DHT22;1020;48.854;8.830;2023-04-30T14:02:10;20.50;99.90
2030;DHT22;1020;48.854;8.830;2023-04-30T14:04:37;18.70;99.90
2030;DHT22;1020;48.854;8.830;2023-04-30T14:07:04;18.60;99.90
2030;DHT22;1020;48.854;8.830;2023-04-30T14:09:32;18.60;99.90
2030;DHT22;1020;48.854;8.830;2023-04-30T14:12:00;18.40;99.90
2030;DHT22;1020;48.854;8.830;2023-04-30T14:14:27;18.50;99.90
2030;DHT22;1020;48.854;8.830;2023-04-30T14:16:54;18.60;99.90
2030;DHT22;1020;48.854;8.830;2023-04-30T14:19:21;18.40;99.90
2030;DHT22;1020;48.854;8.830;2023-04-30T14:21:48;18.40;99.90
2030;DHT22;1020;48.854;8.830;2023-04-30T14:24:15;18.50;99.90
2030;DHT22;1020;48.854;8.830;2023-04-30T14:26:43;18.30;99.90
2030;DHT22;1020;48.854;8.830;2023-04-30T14:29:11;18.30;99.90
2030;DHT22;1020;48.854;8.830;2023-04-30T14:31:38;16.80;99.90
2030;DHT22;1020;48.854;8.830;2023-04-30T14:34:04;18.10;99.90
2030;DHT22;1020;48.854;8.830;2023-04-30T14:36:32;15.70;99.90
2030;DHT22;1020;48.854;8.830;2023-04-30T14:38:59;18.50;99.90
2030;DHT22;1020;48.854;8.830;2023-04-30T14:41:28;18.60;99.90
2030;DHT22;1020;48.854;8.830;2023-04-30T14:43:56;18.80;99.90
2030;DHT22;1020;48.854;8.830;2023-04-30T14:46:23;19.00;99.90
2030;DHT22;1020;48.854;8.830;2023-04-30T14:48:50;19.10;99.90
2030;DHT22;1020;48.854;8.830;2023-04-30T14:51:18;19.20;99.90
2030;DHT22;1020;48.854;8.830;2023-04-30T14:53:45;19.40;99.90
2030;DHT22;1020;48.854;8.830;2023-04-30T14:56:12;19.40;99.90
2030;DHT22;1020;48.854;8.830;2023-04-30T14:58:38;19.20;99.90
2030;DHT22;1020;48.854;8.830;2023-04-30T15:01:06;19.40;99.90
2030;DHT22;1020;48.854;8.830;2023-04-30T15:03:34;19.30;99.90
2030;DHT22;1020;48.854;8.830;2023-04-30T15:06:01;19.30;99.90
2030;DHT22;1020;48.854;8.830;2023-04-30T15:08:28;19.30;99.90
2030;DHT22;1020;48.854;8.830;2023-04-30T15:10:55;19.00;99.90
2030;DHT22;1020;48.854;8.830;2023-04-30T15:13:22;18.90;99.90
2030;DHT22;1020;48.854;8.830;2023-04-30T15:15:49;18.70;99.90
2030;DHT22;1020;48.854;8.830;2023-04-30T15:18:17;18.50;99.90
2030;DHT22;1020;48.854;8.830;2023-04-30T15:20:44;18.50;99.90
2030;DHT22;1020;48.854;8.830;2023-04-30T15:23:11;18.50;99.90
2030;DHT22;1020;48.854;8.830;2023-04-30T15:25:38;18.60;99.90
2030;DHT22;1020;48.854;8.830;2023-04-30T15:28:05;18.80;99.90
2030;DHT22;1020;48.854;8.830;2023-04-30T15:30:32;18.80;99.90
2030;DHT22;1020;48.854;8.830;2023-04-30T15:33:00;18.70;99.90
2030;DHT22;1020;48.854;8.830;2023-04-30T15:35:29;18.80;99.90
2030;DHT22;1020;48.854;8.830;2023-04-30T15:37:56;18.80;99.90
2030;DHT22;1020;48.854;8.830;2023-04-30T15:40:22;18.90;99.90
2030;DHT22;1020;48.854;8.830;2023-04-30T15:42:55;18.70;99.90
2030;DHT22;1020;48.854;8.830;2023-04-30T15:45:22;18.70;99.90
2030;DHT22;1020;48.854;8.830;2023-04-30T15:47:51;18.60;99.90
2030;DHT22;1020;48.854;8.830;2023-04-30T15:50:18;18.40;99.90
2030;DHT22;1020;48.854;8.830;2023-04-30T15:52:47;18.30;99.90
2030;DHT22;1020;48.854;8.830;2023-04-30T15:55:14;18.10;99.90
2030;DHT22;1020;48.854;8.830;2023-04-30T15:57:41;18.10;99.90
2030;DHT22;1020;48.854;8.830;2023-04-30T16:00:08;18.00;99.90
2030;DHT22;1020;48.854;8.830;2023-04-30T16:02:37;18.00;99.90
2030;DHT22;1020;48.854;8.830;2023-04-30T16:05:04;18.50;99.90
2030;DHT22;1020;48.854;8.830;2023-04-30T16:07:31;18.10;99.90
2030;DHT22;1020;48.854;8.830;2023-04-30T16:09:59;16.60;99.90
2030;DHT22;1020;48.854;8.830;2023-04-30T16:12:27;16.40;99.90
2030;DHT22;1020;48.854;8.830;2023-04-30T16:14:53;18.10;99.90
2030;DHT22;1020;48.854;8.830;2023-04-30T16:17:20;17.90;99.90
2030;DHT22;1020;48.854;8.830;2023-04-30T16:19:48;18.00;99.90